Have a Safe July 4th! 

Flight Track Log - Related Links

Times and Time Zones

All times are in EDT time to prevent confusion due to time zone crossing. See the RPA3161 flight status page for this flight to view local times or setup timezone preferences in your user account.

Time Position Orientation Groundspeed Altitude Reporting Facility
EDT Latitude Longitude Course Direction KTS MPH feet Rate Location/Type
Thu 12:40:00 PM 44.1690 -73.2616 195° South  Level FlightAware Approximate
Thu 12:41:00 PM 44.0692 -73.2990 195° South  Level FlightAware Approximate
Thu 12:41:27 PM 44.2444 -73.1792 198° South 290 334 8,700  Level Boston Center
Thu 12:42:00 PM 43.9688 -73.3327 194° South  Level FlightAware Approximate
Thu 12:42:27 PM 44.1650 -73.2011 191° South 290 334 10,700  Level Boston Center
Thu 12:43:00 PM 43.8687 -73.3681 195° South  Level FlightAware Approximate
Thu 12:43:27 PM 44.0797 -73.1972 178° South 323 372 12,900  Level Boston Center
Thu 12:44:00 PM 43.7689 -73.4055 195° South  Level FlightAware Approximate
Thu 12:44:27 PM 43.9903 -73.1586 163° South 335 386 15,800  Level Boston Center
Thu 12:45:00 PM 43.6692 -73.4428 195° South  Level FlightAware Approximate
Thu 12:45:27 PM 43.8967 -73.1172 162° South 345 397 18,600  Level Boston Center
Thu 12:46:00 PM 43.5708 -73.4861 198° South  Level FlightAware Approximate
Thu 12:46:27 PM 43.8031 -73.0872 167° South 345 397 20,500  Level Boston Center
Thu 12:47:27 PM 43.7050 -73.1092 189° South 350 403 22,400 2,100 Climbing Boston Center
Thu 12:48:27 PM 43.5925 -73.1308 188° South 361 415 24,700 2,100 Climbing Boston Center
Thu 12:49:27 PM 43.4903 -73.1497 188° South 372 428 26,600 1,450 Climbing Boston Center
Thu 12:50:27 PM 43.4089 -73.1658 188° South 372 428 27,600 1,050 Climbing Boston Center
Thu 12:51:27 PM 43.2942 -73.1931 190° South 377 434 28,700 1,050 Climbing Boston Center
Thu 12:52:27 PM 43.1875 -73.2147 188° South 384 442 29,700 650 Climbing Boston Center
Thu 12:53:27 PM 43.0750 -73.2358 188° South 397 457 30,000 150 Climbing Boston Center
Thu 12:54:27 PM 42.9872 -73.2547 189° South 397 457 30,000  Level Boston Center
Thu 12:55:27 PM 42.8558 -73.2783 188° South 402 463 30,000  Level Boston Center
Thu 12:56:27 PM 42.7453 -73.3053 190° South 407 468 30,000  Level Boston Center
Thu 12:57:27 PM 42.6367 -73.3233 187° South 407 468 30,000  Level Boston Center
Thu 12:58:27 PM 42.5281 -73.3331 184° South 407 468 30,000  Level Boston Center
Thu 12:59:27 PM 42.4069 -73.3708 193° South 412 474 30,000  Level Boston Center
Thu 01:00:27 PM 42.3133 -73.3722 181° South 405 466 30,000  Level Boston Center
Thu 01:01:27 PM 42.2025 -73.4042 192° South 400 460 30,000  Level Boston Center
Thu 01:02:27 PM 42.0919 -73.4250 188° South 400 460 30,000  Level Boston Center
Thu 01:03:39 PM 41.9436 -73.4589 190° South 420 483 30,000  Level Boston Center
Thu 01:04:39 PM 41.8328 -73.4794 188° South 414 476 30,000  Level Boston Center
Thu 01:06:30 PM 41.6275 -73.5158 188° South 397 457 30,000  Level New York Center
Thu 01:07:30 PM 41.5208 -73.5364 188° South 392 451 30,000  Level New York Center
Thu 01:08:30 PM 41.4078 -73.5567 188° South 398 458 30,000  Level New York Center
Thu 01:09:31 PM 41.2989 -73.5881 192° South 404 465 30,000  Level New York Center
Thu 01:10:31 PM 41.2236 -73.6842 224° Southwest 371 427 30,000  Level New York Center
Thu 01:11:29 PM 41.1583 -73.7914 231° Southwest 371 427 30,000  Level New York Center
Thu 01:12:29 PM 41.0931 -73.9042 232° Southwest 382 440 30,000  Level New York Center
Thu 01:13:29 PM 41.0253 -74.0167 231° Southwest 389 448 30,000  Level New York Center
Thu 01:14:31 PM 40.9597 -74.1289 232° Southwest 394 453 30,000  Level New York Center
Thu 01:15:31 PM 40.8900 -74.2353 229° Southwest 394 453 30,000 -700 Level New York Center
Thu 01:16:31 PM 40.8219 -74.3469 231° Southwest 394 453 28,600 -1,017 Descending New York Center
Thu 01:17:29 PM 40.7564 -74.4531 231° Southwest 389 448 28,000 -300 Descending New York Center
Thu 01:18:31 PM 40.6947 -74.5592 233° Southwest 384 442 28,000  Level New York Center
Thu 01:19:30 PM 40.6308 -74.6650 232° Southwest 384 442 28,000  Level New York Center
Thu 01:20:30 PM 40.5669 -74.7653 230° Southwest 379 436 28,000  Level New York Center
Thu 01:21:31 PM 40.4947 -74.8647 226° Southwest 379 436 28,000  Level New York Center
Thu 01:22:31 PM 40.4267 -74.9669 229° Southwest 374 430 28,000  Level New York Center
Thu 01:23:31 PM 40.3564 -75.0633 226° Southwest 374 430 28,000 -51 Level New York Center
Thu 01:24:29 PM 40.2861 -75.1597 226° Southwest 374 430 27,900 -966 Descending New York Center
Thu 01:25:29 PM 40.2200 -75.2589 229° Southwest 374 430 26,100 -1,835 Descending New York Center
Thu 01:26:30 PM 40.1517 -75.3522 226° Southwest 369 425 24,200 -1,835 Descending New York Center
Thu 01:27:30 PM 40.0878 -75.4403 227° Southwest 358 412 22,400 -1,091 Descending New York Center
Thu 01:28:31 PM 40.0258 -75.5283 227° Southwest 347 399 22,000 -198 Descending New York Center
Thu 01:29:31 PM 39.9597 -75.6186 226° Southwest 347 399 22,000  Level New York Center
Thu 01:30:31 PM 39.8950 -75.7197 230° Southwest 352 405 22,000  Level New York Center
Thu 01:31:30 PM 39.8303 -75.8231 231° Southwest 363 418 22,000 -650 Level New York Center
Thu 01:32:31 PM 39.7672 -75.9294 232° Southwest 370 426 20,700 -1,627 Descending New York Center
Thu 01:33:28 PM 39.7094 -76.0117 228° Southwest 364 419 18,800 -1,966 Descending New York Center
Thu 01:34:30 PM 39.6489 -76.1069 230° Southwest 357 411 16,800 -1,827 Descending New York Center
Thu 01:36:45 PM 39.5167 -76.3167 231° Southwest 306 352 12,800 -1,044 Descending Potomac TRACON
Thu 01:38:00 PM 39.4256 -76.4244 218° Southwest  Level FlightAware Approximate
Thu 01:39:46 PM 39.3167 -76.5333 180° South 307 353 11,300  Level Potomac TRACON
Thu 01:40:46 PM 39.2667 -76.5833 218° Southwest 269 310 10,300 -650 Descending Potomac TRACON
Thu 01:41:46 PM 39.2000 -76.6333 210° Southwest 259 298 10,000 -150 Descending Potomac TRACON
Thu 01:42:46 PM 39.1500 -76.7000 226° Southwest 254 292 10,000 -567 Level Potomac TRACON
Thu 01:44:00 PM 39.0495 -76.7799 224° Southwest  Level FlightAware Approximate
Thu 01:44:46 PM 39.0833 -76.8500 224° Southwest 247 284 8,300  Level Potomac TRACON
Thu 01:45:00 PM 38.8699 -76.9333 180° South  Level FlightAware Approximate
Thu 01:45:40 PM 39.0667 -76.9333 256° West 244 281 7,900  Level Potomac TRACON
Thu 01:46:47 PM 39.0500 -77.0167 256° West 227 261 6,100 -1,785 Descending Potomac TRACON
Thu 01:47:41 PM 39.0167 -77.0833 237° Southwest 206 237 4,300 -1,650 Descending Potomac TRACON
Thu 01:48:47 PM 38.9667 -77.1167 207° Southwest 202 232 2,800 -1,364 Descending Potomac TRACON

Login

Don't have an account? Register now (free) for customized features, flight alerts, and more!